createdAt,value
2017-09-29T00:00:09.204Z,0
2017-09-29T00:01:29.701Z,0
2017-09-29T00:02:50.479Z,0
2017-09-29T00:04:12.054Z,0
2017-09-29T00:05:33.953Z,0
2017-09-29T00:06:54.408Z,0
2017-09-29T00:08:15.325Z,0
2017-09-29T00:09:35.828Z,0
2017-09-29T00:10:56.123Z,0
2017-09-29T00:12:16.704Z,0
2017-09-29T00:13:37.341Z,0
2017-09-29T00:14:57.777Z,0
2017-09-29T00:16:18.815Z,0
2017-09-29T00:17:39.168Z,0
2017-09-29T00:19:00.107Z,0
2017-09-29T00:20:20.498Z,0
2017-09-29T00:21:41.200Z,0
2017-09-29T00:23:01.876Z,0
2017-09-29T00:24:22.731Z,0
2017-09-29T00:25:43.913Z,0
2017-09-29T00:27:04.253Z,0
2017-09-29T00:28:24.734Z,0
2017-09-29T00:29:45.269Z,0
2017-09-29T00:31:05.725Z,0
2017-09-29T00:32:26.130Z,0
2017-09-29T00:33:46.851Z,0
2017-09-29T00:35:08.620Z,0
2017-09-29T00:36:29.219Z,0
2017-09-29T00:37:49.682Z,0
2017-09-29T00:39:10.204Z,0
2017-09-29T00:40:30.999Z,0
2017-09-29T00:41:51.380Z,0
2017-09-29T00:43:12.456Z,0
2017-09-29T00:45:49.873Z,0
2017-09-29T00:47:10.383Z,0
2017-09-29T00:48:31.043Z,0
2017-09-29T00:49:51.380Z,0
2017-09-29T00:51:12.047Z,0
2017-09-29T00:52:33.190Z,0
2017-09-29T00:53:54.052Z,0
2017-09-29T00:55:14.978Z,0
2017-09-29T00:56:37.353Z,0
2017-09-29T00:57:58.003Z,0
2017-09-29T00:59:18.699Z,0
2017-09-29T01:00:40.137Z,0
2017-09-29T01:02:00.901Z,0
2017-09-29T01:03:21.451Z,0
2017-09-29T01:04:41.858Z,0
2017-09-29T01:06:02.442Z,0
2017-09-29T01:07:23.198Z,0
2017-09-29T01:08:43.804Z,0
2017-09-29T01:10:05.190Z,0
2017-09-29T01:11:25.768Z,0
2017-09-29T01:12:46.667Z,0
2017-09-29T01:14:08.051Z,0
2017-09-29T01:15:28.628Z,0
2017-09-29T01:16:49.071Z,0
2017-09-29T01:18:10.780Z,0
2017-09-29T01:19:31.450Z,0
2017-09-29T01:20:51.857Z,0
2017-09-29T01:22:12.572Z,0
2017-09-29T01:23:33.238Z,0
2017-09-29T01:24:54.637Z,0
2017-09-29T01:26:15.056Z,0
2017-09-29T01:27:37.603Z,0
2017-09-29T01:28:58.580Z,0
2017-09-29T01:30:19.483Z,0
2017-09-29T01:31:39.919Z,0
2017-09-29T01:33:00.586Z,0
2017-09-29T01:34:21.781Z,0
2017-09-29T01:35:42.383Z,0
2017-09-29T01:37:03.099Z,0
2017-09-29T01:38:23.851Z,0
2017-09-29T01:39:44.310Z,0
2017-09-29T01:41:05.384Z,0
2017-09-29T01:42:26.017Z,0
2017-09-29T01:43:46.527Z,0
2017-09-29T01:45:08.176Z,0
2017-09-29T01:46:28.603Z,0
2017-09-29T01:47:49.113Z,0
2017-09-29T01:49:09.734Z,0
2017-09-29T01:50:30.407Z,0
2017-09-29T01:51:51.144Z,0
2017-09-29T01:53:11.740Z,0
2017-09-29T01:54:32.343Z,0
2017-09-29T01:55:53.259Z,0
2017-09-29T01:57:13.968Z,0
2017-09-29T01:58:34.455Z,0
2017-09-29T01:59:55.134Z,0
2017-09-29T02:01:15.936Z,0
2017-09-29T02:02:36.566Z,0
2017-09-29T02:03:57.207Z,0
2017-09-29T02:05:17.897Z,0
2017-09-29T02:06:39.705Z,0
2017-09-29T02:08:00.325Z,0
2017-09-29T02:09:21.480Z,0
2017-09-29T02:10:41.961Z,0
2017-09-29T02:12:02.617Z,0
2017-09-29T02:13:23.211Z,0
2017-09-29T02:14:44.185Z,0
2017-09-29T02:16:04.668Z,0
2017-09-29T02:17:26.024Z,0
2017-09-29T02:18:46.664Z,0
2017-09-29T02:20:07.392Z,0
2017-09-29T02:21:29.178Z,0
2017-09-29T02:22:50.056Z,0
2017-09-29T02:24:10.867Z,0
2017-09-29T02:25:32.054Z,0
2017-09-29T02:26:52.658Z,0
2017-09-29T02:28:13.382Z,0
2017-09-29T02:29:34.701Z,0
2017-09-29T02:30:55.486Z,0
2017-09-29T02:32:16.150Z,0
2017-09-29T02:33:37.268Z,0
2017-09-29T02:36:06.875Z,0
2017-09-29T02:37:27.555Z,0
2017-09-29T02:38:50.286Z,0
2017-09-29T02:40:10.984Z,0
2017-09-29T02:41:31.549Z,0
2017-09-29T02:42:52.155Z,0
2017-09-29T02:44:12.817Z,0
2017-09-29T02:45:33.324Z,0
2017-09-29T02:46:54.301Z,0
2017-09-29T02:48:14.913Z,0
2017-09-29T02:49:35.413Z,0
2017-09-29T02:50:56.630Z,0
2017-09-29T02:52:17.538Z,0
2017-09-29T02:53:38.056Z,0
2017-09-29T02:54:59.561Z,0
2017-09-29T02:56:20.248Z,0
2017-09-29T02:57:40.825Z,0
2017-09-29T02:59:01.298Z,0
2017-09-29T03:00:21.885Z,0
2017-09-29T03:01:42.475Z,0
2017-09-29T03:03:02.979Z,0
2017-09-29T03:04:23.553Z,0
2017-09-29T03:05:44.417Z,0
2017-09-29T03:07:05.127Z,0
2017-09-29T03:08:26.906Z,0
2017-09-29T03:09:47.418Z,0
2017-09-29T03:11:08.127Z,0
2017-09-29T03:12:28.641Z,0
2017-09-29T03:13:49.204Z,0
2017-09-29T03:15:09.829Z,0
2017-09-29T03:16:30.966Z,0
2017-09-29T03:17:51.517Z,0
2017-09-29T03:19:12.127Z,0
2017-09-29T03:20:32.596Z,0
2017-09-29T03:21:55.252Z,0
2017-09-29T03:23:15.784Z,0
2017-09-29T03:24:36.633Z,0
2017-09-29T03:25:57.118Z,0
2017-09-29T03:27:17.922Z,0
2017-09-29T03:28:38.594Z,0
2017-09-29T03:29:59.143Z,0
2017-09-29T03:31:19.680Z,0
2017-09-29T03:32:40.075Z,0
2017-09-29T03:34:00.582Z,0
2017-09-29T03:35:21.057Z,0
2017-09-29T03:36:41.596Z,0
2017-09-29T03:38:02.309Z,0
2017-09-29T03:39:23.162Z,0
2017-09-29T03:40:44.308Z,0
2017-09-29T03:42:04.834Z,0
2017-09-29T03:43:25.450Z,0
2017-09-29T03:44:46.226Z,0
2017-09-29T03:46:06.809Z,0
2017-09-29T03:47:27.335Z,0
2017-09-29T03:48:48.105Z,0
2017-09-29T03:50:08.658Z,0
2017-09-29T03:51:29.203Z,0
2017-09-29T03:52:49.649Z,0
2017-09-29T03:54:10.751Z,0
2017-09-29T03:55:31.405Z,0
2017-09-29T03:56:51.870Z,0
2017-09-29T03:58:12.379Z,0
2017-09-29T03:59:33.369Z,0
2017-09-29T04:00:55.005Z,0
2017-09-29T04:02:16.377Z,0
2017-09-29T04:03:36.902Z,0
2017-09-29T04:04:57.975Z,0
2017-09-29T04:06:18.469Z,0
2017-09-29T04:07:39.055Z,0
2017-09-29T04:08:59.537Z,0
2017-09-29T04:10:20.517Z,0
2017-09-29T04:11:40.933Z,0
2017-09-29T04:13:01.360Z,0
2017-09-29T04:14:22.098Z,0
2017-09-29T04:15:42.898Z,0
2017-09-29T04:17:03.656Z,0
2017-09-29T04:18:24.212Z,0
2017-09-29T04:19:44.895Z,0
2017-09-29T04:21:05.622Z,0
2017-09-29T04:22:26.346Z,0
2017-09-29T04:23:46.943Z,0
2017-09-29T04:25:07.612Z,0
2017-09-29T04:26:28.528Z,0
2017-09-29T04:27:49.048Z,0
2017-09-29T04:29:09.782Z,0
2017-09-29T04:30:30.470Z,0
2017-09-29T04:31:50.971Z,0
2017-09-29T04:34:38.640Z,0
2017-09-29T04:35:59.096Z,0
2017-09-29T04:37:20.041Z,0
2017-09-29T04:38:40.762Z,0
2017-09-29T04:40:01.147Z,0
2017-09-29T04:41:21.579Z,0
2017-09-29T04:42:42.528Z,0
2017-09-29T04:44:02.996Z,0
2017-09-29T04:45:23.612Z,0
2017-09-29T04:46:44.153Z,0
2017-09-29T04:48:04.831Z,0
2017-09-29T04:49:25.227Z,0
2017-09-29T04:50:46.601Z,0
2017-09-29T04:52:07.870Z,0
2017-09-29T04:53:28.332Z,0
2017-09-29T04:54:49.570Z,0
2017-09-29T04:56:10.084Z,0
2017-09-29T04:57:30.639Z,0
2017-09-29T04:58:51.996Z,0
2017-09-29T05:00:12.451Z,0
2017-09-29T05:01:32.856Z,0
2017-09-29T05:02:53.510Z,0
2017-09-29T05:04:14.293Z,0
2017-09-29T05:05:35.249Z,0
2017-09-29T05:06:55.734Z,0
2017-09-29T05:08:16.547Z,0
2017-09-29T05:09:37.134Z,0
2017-09-29T05:10:57.660Z,0
2017-09-29T05:12:18.204Z,0
2017-09-29T05:13:39.786Z,0
2017-09-29T05:15:00.411Z,0
2017-09-29T05:16:21.085Z,0
2017-09-29T05:17:42.282Z,0
2017-09-29T05:19:02.766Z,0
2017-09-29T05:20:23.289Z,0
2017-09-29T05:21:43.719Z,1
2017-09-29T05:23:04.412Z,1
2017-09-29T05:24:26.812Z,1
2017-09-29T05:25:47.783Z,1
2017-09-29T05:27:09.371Z,1
2017-09-29T05:28:29.823Z,2
2017-09-29T05:29:50.333Z,2
2017-09-29T05:31:11.610Z,2
2017-09-29T05:32:31.993Z,2
2017-09-29T05:33:52.639Z,2
2017-09-29T05:35:13.220Z,2
2017-09-29T05:36:34.736Z,3
2017-09-29T05:37:55.501Z,3
2017-09-29T05:39:16.568Z,4
2017-09-29T05:40:37.205Z,5
2017-09-29T05:42:00.020Z,6
2017-09-29T05:43:20.622Z,8
2017-09-29T05:44:41.739Z,10
2017-09-29T05:46:03.787Z,11
2017-09-29T05:47:26.561Z,12
2017-09-29T05:58:50.944Z,13
2017-09-29T06:00:11.873Z,13
2017-09-29T06:01:32.876Z,14
2017-09-29T06:02:55.625Z,15
2017-09-29T06:04:17.086Z,15
2017-09-29T06:07:01.709Z,15
2017-09-29T06:08:23.006Z,16
2017-09-29T06:09:44.860Z,17
2017-09-29T06:11:05.837Z,19
2017-09-29T06:12:27.383Z,20
2017-09-29T06:13:48.392Z,21
2017-09-29T06:15:10.700Z,23
2017-09-29T06:16:32.938Z,25
2017-09-29T06:17:53.665Z,26
2017-09-29T06:19:16.461Z,28
2017-09-29T06:20:39.460Z,29
2017-09-29T06:22:00.973Z,31
2017-09-29T06:23:22.435Z,34
2017-09-29T06:24:43.088Z,36
2017-09-29T06:26:04.220Z,37
2017-09-29T06:27:25.139Z,39
2017-09-29T06:28:46.631Z,41
2017-09-29T06:30:07.521Z,42
2017-09-29T06:31:28.287Z,42
2017-09-29T06:32:49.094Z,43
2017-09-29T06:34:10.088Z,42
2017-09-29T06:35:31.858Z,42
2017-09-29T06:36:55.533Z,42
2017-09-29T06:38:17.408Z,43
2017-09-29T06:39:40.706Z,44
2017-09-29T06:41:02.196Z,45
2017-09-29T06:42:24.263Z,45
2017-09-29T06:43:46.625Z,46
2017-09-29T06:45:09.168Z,48
2017-09-29T06:46:30.436Z,51
2017-09-29T06:47:51.384Z,53
2017-09-29T06:49:13.047Z,54
2017-09-29T06:50:41.709Z,55
2017-09-29T06:52:03.109Z,51
2017-09-29T06:53:23.952Z,48
2017-09-29T06:54:44.717Z,46
2017-09-29T06:56:05.682Z,51
2017-09-29T06:57:27.136Z,58
2017-09-29T06:58:48.062Z,60
2017-09-29T07:00:08.923Z,62
2017-09-29T07:01:30.550Z,61
2017-09-29T07:02:53.051Z,62
2017-09-29T07:04:13.803Z,63
2017-09-29T07:05:34.492Z,63
2017-09-29T07:06:55.440Z,63
2017-09-29T07:08:16.183Z,64
2017-09-29T07:09:37.218Z,65
2017-09-29T07:10:57.974Z,65
2017-09-29T07:12:18.966Z,66
2017-09-29T07:13:39.784Z,66
2017-09-29T07:15:00.784Z,64
2017-09-29T07:16:21.786Z,65
2017-09-29T07:17:43.147Z,67
2017-09-29T07:19:05.523Z,71
2017-09-29T07:20:27.251Z,69
2017-09-29T07:21:48.657Z,63
2017-09-29T07:23:10.829Z,61
2017-09-29T07:26:16.366Z,63
2017-09-29T07:27:38.636Z,66
2017-09-29T07:29:00.214Z,72
2017-09-29T07:30:21.505Z,79
2017-09-29T07:31:42.588Z,88
2017-09-29T07:33:03.877Z,99
2017-09-29T07:34:25.004Z,97
2017-09-29T07:35:46.236Z,90
2017-09-29T07:37:07.331Z,85
2017-09-29T07:38:33.642Z,85
2017-09-29T07:39:54.709Z,84
2017-09-29T07:41:15.686Z,83
2017-09-29T07:42:36.954Z,77
2017-09-29T07:43:57.960Z,72
2017-09-29T07:45:19.135Z,60
2017-09-29T07:46:40.147Z,54
2017-09-29T07:48:01.083Z,64
2017-09-29T07:49:22.207Z,78
2017-09-29T07:50:43.273Z,88
2017-09-29T07:52:04.330Z,96
2017-09-29T07:53:25.569Z,103
2017-09-29T07:54:46.791Z,111
2017-09-29T07:56:07.953Z,120
2017-09-29T07:57:29.022Z,128
2017-09-29T07:58:50.738Z,134
2017-09-29T08:00:11.824Z,135
2017-09-29T08:01:32.709Z,135
2017-09-29T08:02:59.637Z,134
2017-09-29T08:04:20.600Z,132
2017-09-29T08:05:41.471Z,132
2017-09-29T08:07:03.957Z,129
2017-09-29T08:08:24.966Z,127
2017-09-29T08:09:46.513Z,118
2017-09-29T08:11:07.579Z,118
2017-09-29T08:12:28.575Z,118
2017-09-29T08:13:49.604Z,128
2017-09-29T08:15:10.449Z,142
2017-09-29T08:16:31.427Z,147
2017-09-29T08:17:53.203Z,150
2017-09-29T08:19:14.238Z,144
2017-09-29T08:20:35.081Z,135
2017-09-29T08:21:56.121Z,126
2017-09-29T08:23:17.102Z,119
2017-09-29T08:24:38.095Z,114
2017-09-29T08:25:58.882Z,116
2017-09-29T08:27:19.963Z,111
2017-09-29T08:28:41.621Z,115
2017-09-29T08:30:02.720Z,120
2017-09-29T08:31:23.777Z,120
2017-09-29T08:32:45.288Z,128
2017-09-29T08:34:06.335Z,133
2017-09-29T08:35:27.361Z,138
2017-09-29T08:36:48.273Z,109
2017-09-29T08:38:09.580Z,107
2017-09-29T08:39:31.299Z,111
2017-09-29T08:40:52.276Z,101
2017-09-29T08:42:14.184Z,77
2017-09-29T08:43:35.853Z,74
2017-09-29T08:44:56.862Z,77
2017-09-29T08:46:17.819Z,77
2017-09-29T08:47:38.924Z,76
2017-09-29T08:48:59.818Z,68
2017-09-29T08:50:20.648Z,71
2017-09-29T08:51:41.504Z,79
2017-09-29T08:53:02.435Z,98
2017-09-29T08:54:23.177Z,91
2017-09-29T08:55:43.992Z,97
2017-09-29T08:57:04.771Z,101
2017-09-29T08:58:25.620Z,93
2017-09-29T08:59:46.325Z,79
2017-09-29T09:01:07.147Z,66
2017-09-29T09:02:27.991Z,75
2017-09-29T09:03:48.914Z,78
2017-09-29T09:05:10.740Z,93
2017-09-29T09:06:32.190Z,118
2017-09-29T09:07:54.424Z,126
2017-09-29T09:09:16.703Z,114
2017-09-29T09:10:37.369Z,120
2017-09-29T09:11:58.190Z,126
2017-09-29T09:13:18.841Z,134
2017-09-29T09:14:39.722Z,156
2017-09-29T09:16:01.179Z,159
2017-09-29T09:17:22.149Z,147
2017-09-29T09:18:43.555Z,113
2017-09-29T09:20:06.197Z,106
2017-09-29T09:21:27.615Z,124
2017-09-29T09:22:55.754Z,122
2017-09-29T09:24:17.291Z,139
2017-09-29T09:25:38.441Z,153
2017-09-29T09:26:59.316Z,163
2017-09-29T09:28:20.273Z,169
2017-09-29T09:29:41.312Z,169
2017-09-29T09:31:02.388Z,172
2017-09-29T09:32:23.165Z,164
2017-09-29T09:33:43.983Z,151
2017-09-29T09:35:05.025Z,150
2017-09-29T09:36:25.876Z,140
2017-09-29T09:37:46.963Z,144
2017-09-29T09:46:16.299Z,161
2017-09-29T09:47:37.871Z,147
2017-09-29T09:48:58.886Z,134
2017-09-29T09:50:20.011Z,158
2017-09-29T09:51:41.018Z,159
2017-09-29T09:53:02.484Z,150
2017-09-29T09:54:23.621Z,156
2017-09-29T09:55:44.668Z,151
2017-09-29T09:57:06.100Z,130
2017-09-29T09:58:28.290Z,132
2017-09-29T09:59:50.003Z,128
2017-09-29T10:01:11.518Z,120
2017-09-29T10:02:32.524Z,96
2017-09-29T10:03:53.405Z,82
2017-09-29T10:05:14.044Z,92
2017-09-29T10:06:34.856Z,91
2017-09-29T10:07:57.078Z,103
2017-09-29T10:09:18.079Z,135
2017-09-29T10:10:39.032Z,161
2017-09-29T10:11:59.952Z,167
2017-09-29T10:13:20.925Z,175
2017-09-29T10:14:42.529Z,168
2017-09-29T10:16:03.833Z,142
2017-09-29T10:17:24.646Z,115
2017-09-29T10:18:45.551Z,95
2017-09-29T10:20:06.517Z,87
2017-09-29T10:21:28.263Z,128
2017-09-29T10:22:48.996Z,171
2017-09-29T10:24:10.214Z,216
2017-09-29T10:25:31.063Z,242
2017-09-29T10:26:52.668Z,216
2017-09-29T10:28:13.590Z,189
2017-09-29T10:29:34.523Z,173
2017-09-29T10:30:55.367Z,163
2017-09-29T10:32:16.376Z,181
2017-09-29T10:33:37.978Z,178
2017-09-29T10:34:58.775Z,145
2017-09-29T10:36:19.512Z,98
2017-09-29T10:37:40.892Z,97
2017-09-29T10:39:01.819Z,94
2017-09-29T10:40:22.600Z,82
2017-09-29T10:41:43.401Z,77
2017-09-29T10:43:04.231Z,102
2017-09-29T10:44:25.108Z,110
2017-09-29T10:45:45.849Z,111
2017-09-29T10:47:06.964Z,124
2017-09-29T10:48:28.663Z,118
2017-09-29T10:49:49.416Z,103
2017-09-29T10:51:10.175Z,92
2017-09-29T10:52:30.913Z,97
2017-09-29T10:53:51.901Z,116
2017-09-29T10:55:13.058Z,122
2017-09-29T10:56:34.625Z,119
2017-09-29T10:57:55.477Z,125
2017-09-29T10:59:16.272Z,121
2017-09-29T11:00:37.741Z,119
2017-09-29T11:01:58.645Z,122
2017-09-29T11:03:19.679Z,123
2017-09-29T11:04:40.458Z,129
2017-09-29T11:06:01.461Z,134
2017-09-29T11:07:22.336Z,129
2017-09-29T11:08:43.200Z,129
2017-09-29T11:10:03.989Z,134
2017-09-29T11:11:24.824Z,148
2017-09-29T11:12:45.748Z,176
2017-09-29T11:14:06.515Z,201
2017-09-29T11:15:27.368Z,216
2017-09-29T11:16:48.998Z,310
2017-09-29T11:18:09.861Z,231
2017-09-29T11:19:30.620Z,237
2017-09-29T11:20:51.702Z,263
2017-09-29T11:22:13.338Z,317
2017-09-29T11:23:34.345Z,300
2017-09-29T11:24:55.200Z,262
2017-09-29T11:26:16.208Z,205
2017-09-29T11:27:37.256Z,190
2017-09-29T11:28:58.496Z,191
2017-09-29T11:30:19.435Z,186
2017-09-29T11:31:41.729Z,162
2017-09-29T11:33:02.976Z,165
2017-09-29T11:34:24.666Z,167
2017-09-29T11:35:47.067Z,174
2017-09-29T11:37:08.067Z,166
2017-09-29T11:38:29.549Z,146
2017-09-29T11:39:51.736Z,134
2017-09-29T11:55:33.897Z,108
2017-09-29T11:56:54.721Z,114
2017-09-29T11:58:16.444Z,130
2017-09-29T11:59:37.097Z,178
2017-09-29T12:00:58.138Z,213
2017-09-29T12:02:18.930Z,217
2017-09-29T12:03:39.725Z,192
2017-09-29T12:05:00.628Z,174
2017-09-29T12:06:21.352Z,156
2017-09-29T12:07:42.070Z,140
2017-09-29T12:09:02.973Z,143
2017-09-29T12:10:23.813Z,188
2017-09-29T12:11:44.553Z,224
2017-09-29T12:13:05.427Z,225
2017-09-29T12:14:26.186Z,210
2017-09-29T12:15:46.982Z,194
2017-09-29T12:17:07.878Z,176
2017-09-29T12:18:28.666Z,157
2017-09-29T12:19:49.650Z,143
2017-09-29T12:21:11.203Z,134
2017-09-29T12:22:31.888Z,125
2017-09-29T12:23:52.527Z,121
2017-09-29T12:25:13.388Z,116
2017-09-29T12:26:34.256Z,106
2017-09-29T12:27:55.557Z,91
2017-09-29T12:29:17.133Z,85
2017-09-29T12:30:49.985Z,75
2017-09-29T12:32:10.773Z,72
2017-09-29T12:33:32.879Z,75
2017-09-29T12:34:53.709Z,76
2017-09-29T12:36:14.469Z,73
2017-09-29T12:37:35.929Z,72
2017-09-29T12:38:56.912Z,78
2017-09-29T12:40:18.490Z,91
2017-09-29T12:41:39.682Z,96
2017-09-29T12:43:00.496Z,95
2017-09-29T12:44:21.678Z,97
2017-09-29T12:45:42.593Z,111
2017-09-29T12:47:03.435Z,124
2017-09-29T12:48:24.138Z,141
2017-09-29T12:49:45.228Z,186
2017-09-29T12:51:05.955Z,229
2017-09-29T12:52:26.657Z,215
2017-09-29T12:53:47.605Z,317
2017-09-29T12:55:08.412Z,329
2017-09-29T12:56:29.789Z,277
2017-09-29T12:57:51.169Z,408
2017-09-29T12:59:12.159Z,379
2017-09-29T13:00:33.135Z,299
2017-09-29T13:01:54.923Z,248
2017-09-29T13:03:15.884Z,263
2017-09-29T13:04:37.633Z,279
2017-09-29T13:05:59.095Z,197
2017-09-29T13:07:19.944Z,176
2017-09-29T13:08:41.840Z,164
2017-09-29T13:10:03.115Z,161
2017-09-29T13:11:24.558Z,135
2017-09-29T13:12:45.535Z,105
2017-09-29T13:14:06.420Z,84
2017-09-29T13:15:27.285Z,98
2017-09-29T13:16:48.182Z,119
2017-09-29T13:18:09.175Z,129
2017-09-29T13:19:30.708Z,157
2017-09-29T13:20:51.538Z,238
2017-09-29T13:22:12.410Z,212
2017-09-29T13:23:34.349Z,149
2017-09-29T13:24:55.957Z,136
2017-09-29T13:26:16.867Z,128
2017-09-29T13:27:37.879Z,131
2017-09-29T13:28:59.355Z,189
2017-09-29T13:36:02.215Z,116
2017-09-29T13:37:23.697Z,121
2017-09-29T13:38:44.550Z,126
2017-09-29T13:40:05.790Z,121
2017-09-29T13:41:27.083Z,116
2017-09-29T13:42:48.979Z,110
2017-09-29T13:44:09.757Z,110
2017-09-29T13:45:31.117Z,112
2017-09-29T13:46:52.857Z,110
2017-09-29T13:48:14.138Z,105
2017-09-29T13:49:35.953Z,102
2017-09-29T13:50:56.744Z,107
2017-09-29T13:52:17.756Z,113
2017-09-29T13:53:39.546Z,115
2017-09-29T13:55:00.539Z,117
2017-09-29T13:56:21.417Z,113
2017-09-29T13:57:42.398Z,113
2017-09-29T13:59:03.521Z,114
2017-09-29T14:00:24.396Z,113
2017-09-29T14:01:45.130Z,114
2017-09-29T14:03:06.264Z,116
2017-09-29T14:04:27.090Z,119
2017-09-29T14:05:49.146Z,121
2017-09-29T14:07:12.113Z,128
2017-09-29T14:08:33.560Z,123
2017-09-29T14:09:54.400Z,121
2017-09-29T14:11:15.777Z,121
2017-09-29T14:12:36.789Z,121
2017-09-29T14:13:57.577Z,122
2017-09-29T14:15:18.423Z,126
2017-09-29T14:25:35.103Z,173
2017-09-29T14:26:56.009Z,176
2017-09-29T14:28:17.191Z,176
2017-09-29T14:29:38.191Z,169
2017-09-29T14:30:59.132Z,161
2017-09-29T14:32:21.022Z,226
2017-09-29T14:33:41.765Z,234
2017-09-29T14:35:02.726Z,222
2017-09-29T14:36:24.023Z,233
2017-09-29T14:37:46.021Z,221
2017-09-29T14:39:06.918Z,168
2017-09-29T14:40:27.590Z,157
2017-09-29T14:41:48.453Z,158
2017-09-29T14:43:10.099Z,147
2017-09-29T14:44:30.976Z,163
2017-09-29T14:45:51.812Z,158
2017-09-29T14:47:12.750Z,160
2017-09-29T14:48:33.468Z,155
2017-09-29T14:49:54.516Z,145
2017-09-29T14:51:15.551Z,133
2017-09-29T14:52:36.410Z,118
2017-09-29T14:53:57.447Z,105
2017-09-29T14:55:18.949Z,96
2017-09-29T14:56:39.702Z,90
2017-09-29T14:58:00.586Z,85
2017-09-29T14:59:21.477Z,81
2017-09-29T15:00:42.373Z,79
2017-09-29T15:02:03.994Z,77
2017-09-29T15:03:24.960Z,76
2017-09-29T15:04:45.807Z,77
2017-09-29T15:06:06.707Z,78
2017-09-29T15:07:27.646Z,80
2017-09-29T15:08:48.485Z,81
2017-09-29T15:10:09.177Z,81
2017-09-29T15:11:29.909Z,75
2017-09-29T15:12:50.962Z,74
2017-09-29T15:14:13.149Z,72
2017-09-29T15:15:34.173Z,72
2017-09-29T15:16:54.933Z,72
2017-09-29T15:18:16.121Z,71
2017-09-29T15:19:37.069Z,69
2017-09-29T15:20:57.969Z,67
2017-09-29T15:25:52.159Z,62
2017-09-29T15:27:13.766Z,64
2017-09-29T15:28:46.442Z,64
2017-09-29T15:30:18.783Z,69
2017-09-29T15:31:42.377Z,71
2017-09-29T15:33:03.506Z,68
2017-09-29T15:34:26.628Z,63
2017-09-29T15:35:47.857Z,71
2017-09-29T15:37:11.045Z,78
2017-09-29T15:38:31.985Z,79
2017-09-29T15:39:52.656Z,61
2017-09-29T15:41:13.697Z,56
2017-09-29T15:42:34.597Z,53
2017-09-29T15:43:55.404Z,49
2017-09-29T15:45:16.733Z,58
2017-09-29T15:46:37.566Z,52
2017-09-29T15:47:58.400Z,48
2017-09-29T15:49:19.879Z,44
2017-09-29T15:50:41.954Z,40
2017-09-29T15:52:03.696Z,40
2017-09-29T15:53:25.020Z,39
2017-09-29T15:54:46.955Z,38
2017-09-29T15:56:08.368Z,37
2017-09-29T15:57:30.058Z,36
2017-09-29T15:58:51.346Z,36
2017-09-29T16:00:13.343Z,35
2017-09-29T16:01:34.809Z,34
2017-09-29T16:03:00.810Z,32
2017-09-29T16:04:22.443Z,32
2017-09-29T16:05:43.842Z,31
2017-09-29T16:07:06.638Z,31
2017-09-29T16:08:28.949Z,30
2017-09-29T16:09:53.687Z,30
2017-09-29T16:11:16.306Z,29
2017-09-29T16:12:38.368Z,29
2017-09-29T16:14:00.043Z,29
2017-09-29T16:15:21.601Z,28
2017-09-29T16:16:43.215Z,28
2017-09-29T16:18:05.677Z,28
2017-09-29T16:19:27.006Z,27
2017-09-29T16:20:49.019Z,28
2017-09-29T16:22:10.489Z,26
2017-09-29T16:23:31.367Z,26
2017-09-29T16:24:52.363Z,25
2017-09-29T16:26:13.254Z,24
2017-09-29T16:27:33.847Z,24
2017-09-29T16:28:55.374Z,24
2017-09-29T16:30:16.155Z,24
2017-09-29T16:31:39.101Z,23
2017-09-29T16:33:00.657Z,23
2017-09-29T16:34:21.618Z,22
2017-09-29T16:35:42.675Z,20
2017-09-29T16:37:03.424Z,20
2017-09-29T16:38:24.142Z,18
2017-09-29T16:39:44.780Z,17
2017-09-29T16:41:06.420Z,17
2017-09-29T16:42:28.168Z,16
2017-09-29T16:43:49.004Z,15
2017-09-29T16:45:09.994Z,14
2017-09-29T16:46:30.727Z,13
2017-09-29T16:47:51.555Z,12
2017-09-29T16:49:13.719Z,11
2017-09-29T16:50:35.297Z,10
2017-09-29T16:51:56.134Z,10
2017-09-29T16:53:17.686Z,9
2017-09-29T16:54:38.622Z,8
2017-09-29T16:55:59.734Z,7
2017-09-29T16:57:20.739Z,6
2017-09-29T16:58:41.645Z,6
2017-09-29T17:00:04.434Z,5
2017-09-29T17:01:26.954Z,4
2017-09-29T17:02:50.868Z,4
2017-09-29T17:04:13.845Z,3
2017-09-29T17:05:36.792Z,3
2017-09-29T17:06:59.138Z,3
2017-09-29T17:08:21.134Z,2
2017-09-29T17:09:43.264Z,2
2017-09-29T17:11:05.850Z,2
2017-09-29T17:12:27.742Z,1
2017-09-29T17:13:49.714Z,1
2017-09-29T17:15:12.915Z,1
2017-09-29T17:16:36.064Z,1
2017-09-29T17:17:58.527Z,1
2017-09-29T17:19:20.372Z,0
2017-09-29T17:20:42.171Z,0
2017-09-29T17:22:03.690Z,0
2017-09-29T17:23:25.317Z,0
2017-09-29T17:24:48.040Z,0
2017-09-29T17:26:10.620Z,0
2017-09-29T17:27:32.653Z,0
2017-09-29T17:28:54.552Z,0
2017-09-29T17:30:16.742Z,0
2017-09-29T17:31:39.037Z,0
2017-09-29T17:33:01.518Z,0
2017-09-29T17:34:23.233Z,0
2017-09-29T17:35:45.748Z,0
2017-09-29T17:37:08.657Z,0
2017-09-29T17:38:30.495Z,0
2017-09-29T17:39:53.421Z,0
2017-09-29T17:41:15.355Z,0
2017-09-29T17:42:38.213Z,0
2017-09-29T17:44:00.729Z,0
2017-09-29T17:45:22.535Z,0
2017-09-29T17:48:15.379Z,0
2017-09-29T17:49:44.651Z,0
2017-09-29T17:51:05.439Z,0
2017-09-29T17:52:26.243Z,0
2017-09-29T17:53:47.830Z,0
2017-09-29T17:55:08.680Z,0
2017-09-29T17:56:30.643Z,0
2017-09-29T17:57:53.399Z,0
2017-09-29T17:59:15.630Z,0
2017-09-29T18:00:37.151Z,0
2017-09-29T18:01:58.883Z,0
2017-09-29T18:03:20.571Z,0
2017-09-29T18:04:44.047Z,0
2017-09-29T18:06:07.082Z,0
2017-09-29T18:07:29.330Z,0
2017-09-29T18:08:50.326Z,0
2017-09-29T18:10:10.966Z,0
2017-09-29T18:11:31.812Z,0
2017-09-29T18:15:22.340Z,0
2017-09-29T18:16:44.332Z,0
2017-09-29T18:18:05.622Z,0
2017-09-29T18:19:29.105Z,0
2017-09-29T18:20:50.694Z,0
2017-09-29T18:22:13.395Z,0
2017-09-29T18:23:34.256Z,0
2017-09-29T18:24:55.014Z,0
2017-09-29T18:26:16.604Z,0
2017-09-29T18:27:37.892Z,0
2017-09-29T18:28:58.671Z,0
2017-09-29T18:30:19.423Z,0
2017-09-29T18:31:40.375Z,0
2017-09-29T18:33:01.314Z,0
2017-09-29T18:34:23.667Z,0
2017-09-29T18:35:44.406Z,0
2017-09-29T18:37:06.788Z,0
2017-09-29T18:38:30.436Z,0
2017-09-29T18:39:52.979Z,0
2017-09-29T18:41:14.363Z,0
2017-09-29T18:42:36.232Z,0
2017-09-29T18:43:58.717Z,0
2017-09-29T18:45:20.305Z,0
2017-09-29T18:46:42.321Z,0
2017-09-29T18:48:05.896Z,0
2017-09-29T18:49:27.025Z,0
2017-09-29T18:50:47.800Z,0
2017-09-29T18:52:09.661Z,0
2017-09-29T18:53:31.917Z,0
2017-09-29T18:54:55.630Z,0
2017-09-29T18:56:17.836Z,0
2017-09-29T18:57:38.835Z,0
2017-09-29T18:58:59.676Z,0
2017-09-29T19:00:21.180Z,0
2017-09-29T19:01:42.499Z,0
2017-09-29T19:03:04.004Z,0
2017-09-29T19:04:25.679Z,0
2017-09-29T19:05:46.470Z,0
2017-09-29T19:07:09.022Z,0
2017-09-29T19:08:32.117Z,0
2017-09-29T19:09:52.797Z,0
2017-09-29T19:11:15.637Z,0
2017-09-29T19:12:36.904Z,0
2017-09-29T19:13:59.026Z,0
2017-09-29T19:15:21.012Z,0
2017-09-29T19:16:42.597Z,0
2017-09-29T19:18:04.403Z,0
2017-09-29T19:19:26.298Z,0
2017-09-29T19:20:47.547Z,0
2017-09-29T19:22:09.381Z,0
2017-09-29T19:23:30.688Z,0
2017-09-29T19:24:52.238Z,0
2017-09-29T19:26:14.454Z,0
2017-09-29T19:27:37.731Z,0
2017-09-29T19:29:00.513Z,0
2017-09-29T19:30:23.004Z,0
2017-09-29T19:31:44.385Z,0
2017-09-29T19:33:06.923Z,0
2017-09-29T19:34:29.669Z,0
2017-09-29T19:35:52.650Z,0
2017-09-29T19:37:14.469Z,0
2017-09-29T19:38:37.292Z,0
2017-09-29T19:40:01.300Z,0
2017-09-29T19:41:22.337Z,0
2017-09-29T19:42:43.855Z,0
2017-09-29T19:44:06.211Z,0
2017-09-29T19:45:30.202Z,0
2017-09-29T19:46:51.346Z,0
2017-09-29T19:48:13.353Z,0
2017-09-29T19:49:34.754Z,0
2017-09-29T19:50:56.588Z,0
2017-09-29T19:52:18.291Z,0
2017-09-29T19:53:40.125Z,0
2017-09-29T19:55:02.353Z,0
2017-09-29T19:56:23.375Z,0
2017-09-29T19:57:45.670Z,0
2017-09-29T19:59:07.131Z,0
2017-09-29T20:00:28.802Z,0
2017-09-29T20:01:49.610Z,0
2017-09-29T20:03:11.838Z,0
2017-09-29T20:04:32.889Z,0
2017-09-29T20:05:55.495Z,0
2017-09-29T20:07:17.972Z,0
2017-09-29T20:08:40.383Z,0
2017-09-29T20:10:01.501Z,0
2017-09-29T20:11:22.926Z,0
2017-09-29T20:12:57.660Z,0
2017-09-29T20:14:34.430Z,0
2017-09-29T20:16:00.139Z,0
2017-09-29T20:17:21.413Z,0
2017-09-29T20:18:43.104Z,0
2017-09-29T20:20:04.383Z,0
2017-09-29T20:21:25.346Z,0
2017-09-29T20:22:47.716Z,0
2017-09-29T20:24:08.579Z,0
2017-09-29T20:25:30.453Z,0
2017-09-29T20:26:52.528Z,0
2017-09-29T20:28:13.300Z,0